Share

Fort Sherman, Panama

Marcos A Gelabert International (MPMG) Elev 43 ft | 8.98 °N, 79.52 °W | Change Station

Current weather conditions updated 28 minutes ago

Mostly Cloudy
Mostly Cloudy
81 °F
Feels Like 86 °F
N
4
Wind Variable Wind from NW
Sunrise 6:07 AM
Sunset 6:30 PM
Moon Waning Gibbous

Today is forecast to be Cooler than yesterday. Thunderstorms.

Pressure 29.86 in
Visibility 5.6 miles
Clouds Few 1800 ft
Mostly Cloudy 8000 ft
Heat Index 86 °F
Dew Point 75 °F
Humidity 84%
Rainfall 0.00 in
Snow Depth Not available.
UV 2 out of 16
Pollen Not available.
Air Quality Not available.
Flu Activity Not available.
METAR MPMG 211300Z 31003KT 9000 FEW018 BKN080 27/24 Q1011 NOSIG

More Conditions Fewer Conditions

Pressure 29.86 in
Visibility 5.6 miles
Clouds Few 1800 ft
Mostly Cloudy 8000 ft
Heat Index 86 °F
Dew Point 75 °F
Humidity 84%
Rainfall 0.00 in
Snow Depth Not available.
UV 2 out of 16
Pollen Not available.
Air Quality Not available.
Flu Activity Not available.
METAR MPMG 211300Z 31003KT 9000 FEW018 BKN080 27/24 Q1011 NOSIG

More Conditions Fewer Conditions

10-Day Weather Forecast

Almanac

Astronomy

Apr. 21, 2014 Rise Set
Actual Time 6:07 AM EST 6:30 PM EST
Civil Twilight 5:45 AM EST 6:51 PM EST
Nautical Twilight 5:20 AM EST 7:16 PM EST
Astronomical Twilight 4:55 AM EST 7:41 PM EST
Moon No Moon Rise 11:46 AM EST
Length of Visible Light 13h 05m
Length of Day
12h 22m
Tomorrow will be 0m 29s longer.
Waning Gibbous, 59% of the Moon is Illuminated
Today
Waning Gibbous
Apr 22
Last Quarter
Apr 29
New
May 6
First Quarter
May 14
Full

Yesterday's Extremes

Country Highs Country Lows

Community

  • Snowy Robin
    Snowy Robin
  • Sun Pillar and Geese
    Sun Pillar and Geese
  • Showers on the Way
    Showers on the Way
  • Easter Morning Fog
    Easter Morning Fog
  • Easter Dance
    Easter Dance

WunderPhotos

Upload Photos

1,703,620 photos uploaded!

Nearby

Snow Depth

Not available.

Coastal Water Temperatures

Place Temperature
No Stations Reporting

Earthquake Activity

City Distance Mag. Time & Date
No recent earthquake activity has been reported nearby.
Minimum magnitude displayed is 2.5.

Nearby Weather Stations

There are no personal weather stations in this area.

What do you think?

We're not finished. Please let us know what you like, what you don't like, and what you are still missing.